createdAt,value
2018-06-09T00:00:51.147Z,95.60
2018-06-09T00:03:19.326Z,95.60
2018-06-09T00:05:47.540Z,95.70
2018-06-09T00:08:15.736Z,95.80
2018-06-09T00:10:43.939Z,95.90
2018-06-09T00:13:12.371Z,96.00
2018-06-09T00:15:40.550Z,96.10
2018-06-09T00:18:08.738Z,96.20
2018-06-09T00:20:36.918Z,96.80
2018-06-09T00:23:05.188Z,96.70
2018-06-09T00:25:33.707Z,96.80
2018-06-09T00:28:01.861Z,97.00
2018-06-09T00:30:30.047Z,97.10
2018-06-09T00:32:58.239Z,97.10
2018-06-09T00:35:26.432Z,97.20
2018-06-09T00:37:54.618Z,97.30
2018-06-09T00:40:22.805Z,97.30
2018-06-09T00:42:51.049Z,97.50
2018-06-09T00:45:19.231Z,97.50
2018-06-09T00:47:47.467Z,97.50
2018-06-09T00:50:15.666Z,97.60
2018-06-09T00:52:43.928Z,97.60
2018-06-09T00:55:12.201Z,97.70
2018-06-09T00:57:40.418Z,97.70
2018-06-09T01:00:08.618Z,97.80
2018-06-09T01:02:36.813Z,97.80
2018-06-09T01:05:05.042Z,97.90
2018-06-09T01:07:33.227Z,97.90
2018-06-09T01:10:01.414Z,97.90
2018-06-09T01:12:29.660Z,97.90
2018-06-09T01:14:57.862Z,98.00
2018-06-09T01:17:26.032Z,98.10
2018-06-09T01:19:54.282Z,98.10
2018-06-09T01:22:22.480Z,98.10
2018-06-09T01:24:50.735Z,98.10
2018-06-09T01:27:18.997Z,98.20
2018-06-09T01:29:47.180Z,98.20
2018-06-09T01:32:15.374Z,98.20
2018-06-09T01:34:43.598Z,98.30
2018-06-09T01:37:11.786Z,98.40
2018-06-09T01:39:39.960Z,98.50
2018-06-09T01:42:08.202Z,98.50
2018-06-09T01:44:36.399Z,98.50
2018-06-09T01:47:05.136Z,98.60
2018-06-09T01:49:33.398Z,98.70
2018-06-09T01:52:01.610Z,98.70
2018-06-09T01:54:30.143Z,98.70
2018-06-09T01:56:58.347Z,98.80
2018-06-09T01:59:26.563Z,98.80
2018-06-09T02:01:54.796Z,98.90
2018-06-09T02:04:23.016Z,99.10
2018-06-09T02:06:51.198Z,99.10
2018-06-09T02:09:19.430Z,99.10
2018-06-09T02:11:47.646Z,99.40
2018-06-09T02:14:15.867Z,99.40
2018-06-09T02:16:44.071Z,99.90
2018-06-09T02:19:12.251Z,99.60
2018-06-09T02:21:40.524Z,99.70
2018-06-09T02:24:08.743Z,99.80
2018-06-09T02:26:36.990Z,99.80
2018-06-09T02:29:05.376Z,99.90
2018-06-09T02:31:33.657Z,99.90
2018-06-09T02:34:01.860Z,99.90
2018-06-09T02:36:30.061Z,99.90
2018-06-09T02:38:58.277Z,99.90
2018-06-09T02:41:26.626Z,99.90
2018-06-09T02:43:54.802Z,99.90
2018-06-09T02:46:23.024Z,99.90
2018-06-09T02:48:51.211Z,99.90
2018-06-09T02:51:19.493Z,99.90
2018-06-09T02:53:47.691Z,99.90
2018-06-09T02:56:15.871Z,99.90
2018-06-09T02:58:44.094Z,99.90
2018-06-09T03:01:12.307Z,99.90
2018-06-09T03:03:40.504Z,99.90
2018-06-09T03:06:08.692Z,99.90
2018-06-09T03:08:36.882Z,99.90
2018-06-09T03:11:05.099Z,99.90
2018-06-09T03:13:33.307Z,99.90
2018-06-09T03:16:01.513Z,99.90
2018-06-09T03:18:29.731Z,99.90
2018-06-09T03:23:26.102Z,99.90
2018-06-09T03:25:54.290Z,99.90
2018-06-09T03:28:22.493Z,99.90
2018-06-09T03:30:50.694Z,99.90
2018-06-09T03:33:18.901Z,99.90
2018-06-09T03:35:47.107Z,99.90
2018-06-09T03:38:15.305Z,99.90
2018-06-09T03:40:43.521Z,99.90
2018-06-09T03:43:11.805Z,99.90
2018-06-09T03:45:39.948Z,99.90
2018-06-09T03:48:08.996Z,99.90
2018-06-09T03:50:37.274Z,99.90
2018-06-09T03:53:05.471Z,99.90
2018-06-09T03:55:33.659Z,99.90
2018-06-09T03:58:02.023Z,99.90
2018-06-09T04:00:30.226Z,99.90
2018-06-09T04:02:58.477Z,99.90
2018-06-09T04:05:26.732Z,99.90
2018-06-09T04:07:54.939Z,99.90
2018-06-09T04:12:51.092Z,99.90
2018-06-09T04:17:47.619Z,99.90
2018-06-09T04:20:15.839Z,99.90
2018-06-09T04:22:44.025Z,99.90
2018-06-09T04:25:12.280Z,99.90
2018-06-09T04:27:40.451Z,99.90
2018-06-09T04:30:08.647Z,99.90
2018-06-09T04:35:04.864Z,99.90
2018-06-09T04:37:33.076Z,99.90
2018-06-09T04:40:01.345Z,99.90
2018-06-09T04:42:29.527Z,99.90
2018-06-09T04:44:57.743Z,99.90
2018-06-09T04:47:25.943Z,99.90
2018-06-09T04:49:54.148Z,99.90
2018-06-09T04:52:23.515Z,99.90
2018-06-09T04:54:51.708Z,99.90
2018-06-09T04:57:19.915Z,99.90
2018-06-09T04:59:48.079Z,99.90
2018-06-09T05:02:16.296Z,99.90
2018-06-09T05:04:44.503Z,99.90
2018-06-09T05:07:12.675Z,99.90
2018-06-09T05:09:40.870Z,99.90
2018-06-09T05:12:09.058Z,99.90
2018-06-09T05:14:37.276Z,99.90
2018-06-09T05:17:05.479Z,99.90
2018-06-09T05:19:33.674Z,99.90
2018-06-09T05:22:01.882Z,99.90
2018-06-09T05:24:30.085Z,99.90
2018-06-09T05:26:58.291Z,99.90
2018-06-09T05:29:26.487Z,99.90
2018-06-09T05:31:54.753Z,99.90
2018-06-09T05:34:22.944Z,99.90
2018-06-09T05:36:51.143Z,99.80
2018-06-09T05:39:19.394Z,99.60
2018-06-09T05:41:47.648Z,99.50
2018-06-09T05:44:15.843Z,99.10
2018-06-09T05:46:44.074Z,98.70
2018-06-09T05:49:12.252Z,98.70
2018-06-09T05:51:40.510Z,98.40
2018-06-09T05:54:08.699Z,98.10
2018-06-09T05:56:36.889Z,97.60
2018-06-09T05:59:05.098Z,97.60
2018-06-09T06:01:33.361Z,97.50
2018-06-09T06:04:01.700Z,97.40
2018-06-09T06:06:29.838Z,97.30
2018-06-09T06:08:58.023Z,97.00
2018-06-09T06:11:26.443Z,97.00
2018-06-09T06:13:54.694Z,97.10
2018-06-09T06:16:22.910Z,97.00
2018-06-09T06:18:51.189Z,96.80
2018-06-09T06:21:19.454Z,96.90
2018-06-09T06:23:47.658Z,96.80
2018-06-09T06:26:15.849Z,96.60
2018-06-09T06:28:44.063Z,96.40
2018-06-09T06:31:12.264Z,96.20
2018-06-09T06:33:40.454Z,96.10
2018-06-09T06:36:08.665Z,95.90
2018-06-09T06:38:36.858Z,95.80
2018-06-09T06:41:05.092Z,95.90
2018-06-09T06:46:01.403Z,96.10
2018-06-09T06:48:29.623Z,95.60
2018-06-09T06:53:25.866Z,95.20
2018-06-09T06:55:54.061Z,95.30
2018-06-09T06:58:22.247Z,95.10
2018-06-09T07:03:18.946Z,94.50
2018-06-09T07:05:47.194Z,94.30
2018-06-09T07:08:15.454Z,93.90
2018-06-09T07:10:43.945Z,93.30
2018-06-09T07:13:12.187Z,93.00
2018-06-09T07:15:40.555Z,93.40
2018-06-09T07:18:08.755Z,92.90
2018-06-09T07:20:36.953Z,92.40
2018-06-09T07:23:05.215Z,92.40
2018-06-09T07:25:33.428Z,92.20
2018-06-09T07:28:01.627Z,92.50
2018-06-09T07:30:33.176Z,92.00
2018-06-09T07:33:01.385Z,91.90
2018-06-09T07:35:29.607Z,91.60
2018-06-09T07:37:57.835Z,91.60
2018-06-09T07:40:26.037Z,91.70
2018-06-09T07:42:54.271Z,91.50
2018-06-09T07:45:22.470Z,91.40
2018-06-09T07:47:50.685Z,91.40
2018-06-09T07:50:18.862Z,91.20
2018-06-09T07:52:47.084Z,90.60
2018-06-09T07:57:43.230Z,90.60
2018-06-09T08:00:11.421Z,90.60
2018-06-09T08:02:39.620Z,90.30
2018-06-09T08:05:07.868Z,90.20
2018-06-09T08:07:36.312Z,90.40
2018-06-09T08:10:04.515Z,90.40
2018-06-09T08:12:32.847Z,90.20
2018-06-09T08:15:01.097Z,90.20
2018-06-09T08:17:29.299Z,90.00
2018-06-09T08:19:57.536Z,89.80
2018-06-09T08:22:25.807Z,89.10
2018-06-09T08:24:54.088Z,88.40
2018-06-09T08:27:22.295Z,88.70
2018-06-09T08:32:18.439Z,88.30
2018-06-09T08:34:46.644Z,87.40
2018-06-09T08:39:42.958Z,87.30
2018-06-09T08:42:11.169Z,87.60
2018-06-09T08:44:39.375Z,87.60
2018-06-09T08:47:07.595Z,86.40
2018-06-09T08:49:35.783Z,86.20
2018-06-09T08:52:04.009Z,86.10
2018-06-09T08:54:32.234Z,85.90
2018-06-09T08:57:00.448Z,86.50
2018-06-09T08:59:28.651Z,85.40
2018-06-09T09:01:56.869Z,84.50
2018-06-09T09:04:25.134Z,84.50
2018-06-09T09:06:53.299Z,84.50
2018-06-09T09:09:21.556Z,83.90
2018-06-09T09:11:49.800Z,82.80
2018-06-09T09:14:18.219Z,82.50
2018-06-09T09:16:46.427Z,81.80
2018-06-09T09:19:14.618Z,81.60
2018-06-09T09:21:43.232Z,81.00
2018-06-09T09:24:11.447Z,80.10
2018-06-09T09:26:39.663Z,79.10
2018-06-09T09:29:07.851Z,78.10
2018-06-09T09:31:36.122Z,77.20
2018-06-09T09:34:04.335Z,77.10
2018-06-09T09:36:32.523Z,77.20
2018-06-09T09:39:00.711Z,76.70
2018-06-09T09:41:29.022Z,75.50
2018-06-09T09:43:57.219Z,74.70
2018-06-09T09:46:25.464Z,74.50
2018-06-09T09:48:53.674Z,73.80
2018-06-09T09:51:21.914Z,73.30
2018-06-09T09:56:18.108Z,72.40
2018-06-09T09:58:46.311Z,70.50
2018-06-09T10:01:14.517Z,71.00
2018-06-09T10:03:42.740Z,70.90
2018-06-09T10:06:10.923Z,69.90
2018-06-09T10:08:39.179Z,68.50
2018-06-09T10:13:35.388Z,67.10
2018-06-09T10:16:03.599Z,67.60
2018-06-09T10:18:31.763Z,66.10
2018-06-09T10:20:59.963Z,66.60
2018-06-09T10:23:28.187Z,66.70
2018-06-09T10:25:56.404Z,64.10
2018-06-09T10:28:24.621Z,62.70
2018-06-09T10:30:52.822Z,62.10
2018-06-09T10:33:21.383Z,60.60
2018-06-09T10:35:49.591Z,60.40
2018-06-09T10:38:17.783Z,59.90
2018-06-09T10:40:45.971Z,60.50
2018-06-09T10:43:14.197Z,59.80
2018-06-09T10:48:10.392Z,59.70
2018-06-09T10:50:38.584Z,59.00
2018-06-09T10:53:06.808Z,59.10
2018-06-09T10:55:35.012Z,58.90
2018-06-09T10:58:03.208Z,58.50
2018-06-09T11:00:31.414Z,58.30
2018-06-09T11:02:59.606Z,58.40
2018-06-09T11:05:27.810Z,58.50
2018-06-09T11:07:56.004Z,57.90
2018-06-09T11:10:24.210Z,57.90
2018-06-09T11:12:52.402Z,57.10
2018-06-09T11:15:20.602Z,57.10
2018-06-09T11:17:48.787Z,56.60
2018-06-09T11:20:17.004Z,54.60
2018-06-09T11:22:45.188Z,54.40
2018-06-09T11:25:13.424Z,53.90
2018-06-09T11:30:09.569Z,54.70
2018-06-09T11:32:37.753Z,55.10
2018-06-09T11:35:06.038Z,54.60
2018-06-09T11:40:02.230Z,49.20
2018-06-09T11:42:30.530Z,48.80
2018-06-09T11:44:58.696Z,48.70
2018-06-09T11:47:26.874Z,48.10
2018-06-09T11:49:55.094Z,47.10
2018-06-09T11:52:23.276Z,45.40
2018-06-09T11:54:51.491Z,45.80
2018-06-09T11:57:19.999Z,44.90
2018-06-09T11:59:48.195Z,43.80
2018-06-09T12:02:16.403Z,43.20
2018-06-09T12:04:44.594Z,43.40
2018-06-09T12:09:40.740Z,42.60
2018-06-09T12:12:08.921Z,42.00
2018-06-09T12:14:37.132Z,40.20
2018-06-09T12:17:05.536Z,41.00
2018-06-09T12:19:33.730Z,40.50
2018-06-09T12:22:01.951Z,40.80
2018-06-09T12:24:30.152Z,40.10
2018-06-09T12:26:58.387Z,40.80
2018-06-09T12:29:26.526Z,39.90
2018-06-09T12:31:54.804Z,39.90
2018-06-09T12:34:23.000Z,39.30
2018-06-09T12:36:51.180Z,39.00
2018-06-09T12:39:19.440Z,38.90
2018-06-09T12:44:15.640Z,37.90
2018-06-09T12:46:43.827Z,38.20
2018-06-09T12:49:12.040Z,38.60
2018-06-09T12:51:40.274Z,38.30
2018-06-09T12:54:08.464Z,38.40
2018-06-09T12:56:36.663Z,38.40
2018-06-09T12:59:04.937Z,38.90
2018-06-09T13:01:33.255Z,38.80
2018-06-09T13:04:01.501Z,38.70
2018-06-09T13:06:29.680Z,38.90
2018-06-09T13:08:57.888Z,38.50
2018-06-09T13:11:26.093Z,38.10
2018-06-09T13:13:54.273Z,38.00
2018-06-09T13:16:22.480Z,38.30
2018-06-09T13:18:50.663Z,38.40
2018-06-09T13:23:46.903Z,37.30
2018-06-09T13:26:15.095Z,38.10
2018-06-09T13:28:43.301Z,37.40
2018-06-09T13:31:11.519Z,37.60
2018-06-09T13:33:39.739Z,38.20
2018-06-09T13:36:07.964Z,38.20
2018-06-09T13:38:36.147Z,37.80
2018-06-09T13:41:04.409Z,37.40
2018-06-09T13:43:32.807Z,37.70
2018-06-09T13:46:00.999Z,37.40
2018-06-09T13:48:29.193Z,37.40
2018-06-09T13:50:57.383Z,37.90
2018-06-09T13:53:25.586Z,39.30
2018-06-09T13:55:53.755Z,39.20
2018-06-09T13:58:21.970Z,39.90
2018-06-09T14:00:50.197Z,40.60
2018-06-09T14:03:18.396Z,42.50
2018-06-09T14:05:46.752Z,43.60
2018-06-09T14:08:14.942Z,45.30
2018-06-09T14:10:43.161Z,46.50
2018-06-09T14:13:11.415Z,47.60
2018-06-09T14:15:39.579Z,49.10
2018-06-09T14:18:07.779Z,50.30
2018-06-09T14:20:38.169Z,51.90
2018-06-09T14:23:06.412Z,50.90
2018-06-09T14:25:34.588Z,52.20
2018-06-09T14:28:02.856Z,53.80
2018-06-09T14:32:59.045Z,54.20
2018-06-09T14:35:27.244Z,54.00
2018-06-09T14:37:55.716Z,54.50
2018-06-09T14:40:23.908Z,55.90
2018-06-09T14:42:52.106Z,56.70
2018-06-09T14:45:20.312Z,57.60
2018-06-09T14:47:48.524Z,58.80
2018-06-09T14:50:16.704Z,60.10
2018-06-09T14:52:44.974Z,61.60
2018-06-09T14:55:13.243Z,63.60
2018-06-09T14:57:41.428Z,65.20
2018-06-09T15:00:09.636Z,66.70
2018-06-09T15:02:37.839Z,68.60
2018-06-09T15:05:06.063Z,70.40
2018-06-09T15:07:34.251Z,71.30
2018-06-09T15:10:02.441Z,72.30
2018-06-09T15:12:30.698Z,72.60
2018-06-09T15:14:58.905Z,73.80
2018-06-09T15:17:27.088Z,74.30
2018-06-09T15:19:55.324Z,75.00
2018-06-09T15:22:23.516Z,75.40
2018-06-09T15:24:51.722Z,76.10
2018-06-09T15:27:19.912Z,76.40
2018-06-09T15:29:48.119Z,77.40
2018-06-09T15:32:16.332Z,77.30
2018-06-09T15:34:44.644Z,77.80
2018-06-09T15:37:12.816Z,77.50
2018-06-09T15:39:41.064Z,77.00
2018-06-09T15:42:09.339Z,76.70
2018-06-09T15:44:37.542Z,76.80
2018-06-09T15:47:05.750Z,76.80
2018-06-09T15:49:33.957Z,77.30
2018-06-09T15:52:02.203Z,77.60
2018-06-09T15:54:30.435Z,77.80
2018-06-09T15:56:58.610Z,78.70
2018-06-09T15:59:26.800Z,79.40
2018-06-09T16:01:55.042Z,80.30
2018-06-09T16:04:23.522Z,81.10
2018-06-09T16:06:51.748Z,81.80
2018-06-09T16:09:19.939Z,81.80
2018-06-09T16:14:16.324Z,80.80
2018-06-09T16:16:44.522Z,80.30
2018-06-09T16:19:12.738Z,79.80
2018-06-09T16:21:40.931Z,79.50
2018-06-09T16:24:09.112Z,79.00
2018-06-09T16:29:05.489Z,78.50
2018-06-09T16:31:33.717Z,79.20
2018-06-09T16:34:01.917Z,79.40
2018-06-09T16:36:30.117Z,79.20
2018-06-09T16:38:58.319Z,79.40
2018-06-09T16:41:26.648Z,79.30
2018-06-09T16:43:54.879Z,79.40
2018-06-09T16:46:23.068Z,79.70
2018-06-09T16:48:51.265Z,80.00
2018-06-09T16:51:19.537Z,79.40
2018-06-09T16:53:47.757Z,79.70
2018-06-09T16:56:15.972Z,79.70
2018-06-09T16:58:44.164Z,79.80
2018-06-09T17:01:12.390Z,79.90
2018-06-09T17:03:40.608Z,80.00
2018-06-09T17:06:08.820Z,80.30
2018-06-09T17:08:37.032Z,80.60
2018-06-09T17:11:05.307Z,81.20
2018-06-09T17:13:33.517Z,82.10
2018-06-09T17:16:01.732Z,82.70
2018-06-09T17:18:29.944Z,83.60
2018-06-09T17:20:58.148Z,84.00
2018-06-09T17:23:26.346Z,84.50
2018-06-09T17:25:54.551Z,84.80
2018-06-09T17:28:22.780Z,85.30
2018-06-09T17:33:18.967Z,85.60
2018-06-09T17:35:47.155Z,85.90
2018-06-09T17:38:15.342Z,86.10
2018-06-09T17:40:43.579Z,86.40
2018-06-09T17:43:11.803Z,86.90
2018-06-09T17:45:40.029Z,87.80
2018-06-09T17:48:08.204Z,88.70
2018-06-09T17:55:32.392Z,89.70
2018-06-09T17:58:00.591Z,89.80
2018-06-09T18:02:57.103Z,89.70
2018-06-09T18:05:25.321Z,89.80
2018-06-09T18:07:53.660Z,90.00
2018-06-09T18:10:22.193Z,90.00
2018-06-09T18:12:50.441Z,90.00
2018-06-09T18:15:18.649Z,90.10
2018-06-09T18:17:46.872Z,90.20
2018-06-09T18:20:15.067Z,90.20
2018-06-09T18:22:43.328Z,90.20
2018-06-09T18:25:11.459Z,90.30
2018-06-09T18:27:39.679Z,90.40
2018-06-09T18:30:07.883Z,90.60
2018-06-09T18:32:36.082Z,90.60
2018-06-09T18:35:04.277Z,90.60
2018-06-09T18:37:32.467Z,90.60
2018-06-09T18:40:00.688Z,90.80
2018-06-09T18:42:28.891Z,90.90
2018-06-09T18:44:57.075Z,90.90
2018-06-09T18:47:25.280Z,91.10
2018-06-09T18:49:53.471Z,91.20
2018-06-09T18:52:21.763Z,91.30
2018-06-09T18:54:49.949Z,91.40
2018-06-09T18:57:18.175Z,91.60
2018-06-09T18:59:46.391Z,91.70
2018-06-09T19:04:42.632Z,91.90
2018-06-09T19:07:10.820Z,91.70
2018-06-09T19:09:39.031Z,91.60
2018-06-09T19:14:35.194Z,91.20
2018-06-09T19:17:03.419Z,91.20
2018-06-09T19:19:31.606Z,91.30
2018-06-09T19:21:59.812Z,91.20
2018-06-09T19:24:28.005Z,91.10
2018-06-09T19:26:56.225Z,91.10
2018-06-09T19:29:24.435Z,90.90
2018-06-09T19:31:52.656Z,91.10
2018-06-09T19:34:20.857Z,91.00
2018-06-09T19:36:49.072Z,90.90
2018-06-09T19:39:17.275Z,91.20
2018-06-09T19:44:13.463Z,91.30
2018-06-09T19:46:41.644Z,91.30
2018-06-09T19:49:09.855Z,91.30
2018-06-09T19:51:38.130Z,91.40
2018-06-09T19:54:06.499Z,92.10
2018-06-09T19:56:34.699Z,92.50
2018-06-09T19:59:02.897Z,93.10
2018-06-09T20:01:31.148Z,93.90
2018-06-09T20:03:59.339Z,94.20
2018-06-09T20:06:27.563Z,93.70
2018-06-09T20:08:55.773Z,93.70
2018-06-09T20:11:24.207Z,94.30
2018-06-09T20:13:52.410Z,94.90
2018-06-09T20:18:48.720Z,94.80
2018-06-09T20:21:17.021Z,95.20
2018-06-09T20:23:45.159Z,95.20
2018-06-09T20:26:13.367Z,95.50
2018-06-09T20:28:41.555Z,95.80
2018-06-09T20:31:09.782Z,96.00
2018-06-09T20:33:38.044Z,96.40
2018-06-09T20:36:06.249Z,97.00
2018-06-09T20:38:34.457Z,97.10
2018-06-09T20:41:02.667Z,97.10
2018-06-09T20:43:30.850Z,97.20
2018-06-09T20:45:59.096Z,98.00
2018-06-09T20:48:27.219Z,98.20
2018-06-09T20:50:55.436Z,98.70
2018-06-09T20:53:23.651Z,99.50
2018-06-09T20:55:51.891Z,99.30
2018-06-09T20:58:20.088Z,99.10
2018-06-09T21:00:48.420Z,99.10
2018-06-09T21:03:16.625Z,99.20
2018-06-09T21:05:44.918Z,99.20
2018-06-09T21:08:13.035Z,99.10
2018-06-09T21:10:41.212Z,99.20
2018-06-09T21:13:09.435Z,99.50
2018-06-09T21:15:37.646Z,99.40
2018-06-09T21:18:05.824Z,99.60
2018-06-09T21:20:34.030Z,99.90
2018-06-09T21:23:02.227Z,99.90
2018-06-09T21:25:30.433Z,99.90
2018-06-09T21:28:03.947Z,99.90
2018-06-09T21:30:37.611Z,99.90
2018-06-09T21:33:11.210Z,99.90
2018-06-09T21:35:51.420Z,99.90
2018-06-09T21:38:27.067Z,99.90
2018-06-09T21:41:00.811Z,99.90
2018-06-09T21:43:33.346Z,99.90
2018-06-09T21:46:01.979Z,99.90
2018-06-09T21:48:30.203Z,99.90
2018-06-09T21:50:58.406Z,99.90
2018-06-09T21:53:26.606Z,99.90
2018-06-09T21:55:54.792Z,99.90
2018-06-09T21:58:22.999Z,99.90
2018-06-09T22:03:19.123Z,99.90
2018-06-09T22:05:47.334Z,99.90
2018-06-09T22:08:15.532Z,99.90
2018-06-09T22:10:43.691Z,99.90
2018-06-09T22:13:11.896Z,99.90
2018-06-09T22:15:40.076Z,99.90
2018-06-09T22:18:08.288Z,99.90
2018-06-09T22:20:36.482Z,99.90
2018-06-09T22:23:04.676Z,99.90
2018-06-09T22:25:38.139Z,99.90
2018-06-09T22:28:06.311Z,99.90
2018-06-09T22:30:34.517Z,99.90
2018-06-09T22:33:02.762Z,99.90
2018-06-09T22:35:30.966Z,99.90
2018-06-09T22:37:59.155Z,99.90
2018-06-09T22:40:27.355Z,99.90
2018-06-09T22:42:55.575Z,99.90
2018-06-09T22:45:23.765Z,99.90
2018-06-09T22:47:51.969Z,99.90
2018-06-09T22:50:20.154Z,99.90
2018-06-09T22:52:48.393Z,99.90
2018-06-09T22:55:16.601Z,99.90
2018-06-09T22:57:44.807Z,99.90
2018-06-09T23:00:35.129Z,99.90
2018-06-09T23:03:03.380Z,99.90
2018-06-09T23:05:31.578Z,99.90
2018-06-09T23:07:59.796Z,99.90
2018-06-09T23:10:27.977Z,99.90
2018-06-09T23:12:56.242Z,99.90
2018-06-09T23:15:24.478Z,99.90
2018-06-09T23:17:52.682Z,99.90
2018-06-09T23:20:20.896Z,99.90
2018-06-09T23:22:49.144Z,99.90
2018-06-09T23:25:17.348Z,99.90
2018-06-09T23:27:45.551Z,99.90
2018-06-09T23:30:13.724Z,99.90
2018-06-09T23:32:41.976Z,99.90
2018-06-09T23:35:10.187Z,99.90
2018-06-09T23:37:38.390Z,99.90
2018-06-09T23:40:06.564Z,99.90
2018-06-09T23:42:34.747Z,99.90
2018-06-09T23:45:02.969Z,99.90
2018-06-09T23:47:31.180Z,99.90
2018-06-09T23:49:59.368Z,99.90
2018-06-09T23:52:27.832Z,99.90
2018-06-09T23:54:56.003Z,99.90
2018-06-09T23:57:24.227Z,99.90
2018-06-09T23:59:52.411Z,99.90
